sensor_id;sensor_type;location;lat;lon;timestamp;P1;durP1;ratioP1;P2;durP2;ratioP2
72586;SDS011;60621;49.576;11.024;2022-12-05T00:00:42;25.63;;;10.98;;
72586;SDS011;60621;49.576;11.024;2022-12-05T00:01:43;25.27;;;11.25;;
72586;SDS011;60621;49.576;11.024;2022-12-05T00:02:45;23.00;;;10.98;;
72586;SDS011;60621;49.576;11.024;2022-12-05T00:03:47;21.88;;;10.35;;
72586;SDS011;60621;49.576;11.024;2022-12-05T00:04:50;20.77;;;9.63;;
72586;SDS011;60621;49.576;11.024;2022-12-05T00:05:52;22.02;;;10.43;;
72586;SDS011;60621;49.576;11.024;2022-12-05T00:06:53;22.92;;;10.32;;
72586;SDS011;60621;49.576;11.024;2022-12-05T00:07:55;20.48;;;10.27;;
72586;SDS011;60621;49.576;11.024;2022-12-05T00:08:57;22.42;;;10.10;;
72586;SDS011;60621;49.576;11.024;2022-12-05T00:09:59;23.08;;;10.98;;
72586;SDS011;60621;49.576;11.024;2022-12-05T00:11:00;19.10;;;10.00;;
72586;SDS011;60621;49.576;11.024;2022-12-05T00:12:02;22.40;;;11.20;;
72586;SDS011;60621;49.576;11.024;2022-12-05T00:13:04;21.02;;;10.07;;
72586;SDS011;60621;49.576;11.024;2022-12-05T00:14:06;22.23;;;11.15;;
72586;SDS011;60621;49.576;11.024;2022-12-05T00:16:14;21.15;;;10.25;;
72586;SDS011;60621;49.576;11.024;2022-12-05T00:17:18;18.92;;;9.93;;
72586;SDS011;60621;49.576;11.024;2022-12-05T00:18:19;20.13;;;9.52;;
72586;SDS011;60621;49.576;11.024;2022-12-05T00:19:21;20.50;;;9.55;;
72586;SDS011;60621;49.576;11.024;2022-12-05T00:20:22;19.42;;;9.70;;
72586;SDS011;60621;49.576;11.024;2022-12-05T00:21:25;19.90;;;9.20;;
72586;SDS011;60621;49.576;11.024;2022-12-05T00:22:28;18.40;;;9.02;;
72586;SDS011;60621;49.576;11.024;2022-12-05T00:23:30;20.73;;;9.52;;
72586;SDS011;60621;49.576;11.024;2022-12-05T00:24:31;20.75;;;9.90;;
72586;SDS011;60621;49.576;11.024;2022-12-05T00:25:34;20.13;;;9.43;;
72586;SDS011;60621;49.576;11.024;2022-12-05T00:26:36;20.80;;;9.95;;
72586;SDS011;60621;49.576;11.024;2022-12-05T00:27:38;21.05;;;10.35;;
72586;SDS011;60621;49.576;11.024;2022-12-05T00:28:40;19.40;;;9.93;;
72586;SDS011;60621;49.576;11.024;2022-12-05T00:29:41;20.33;;;9.80;;
72586;SDS011;60621;49.576;11.024;2022-12-05T00:30:43;17.35;;;8.70;;
72586;SDS011;60621;49.576;11.024;2022-12-05T00:31:44;19.67;;;9.85;;
72586;SDS011;60621;49.576;11.024;2022-12-05T00:32:46;23.73;;;10.82;;
72586;SDS011;60621;49.576;11.024;2022-12-05T00:33:48;21.63;;;10.57;;
72586;SDS011;60621;49.576;11.024;2022-12-05T00:34:50;21.75;;;10.15;;
72586;SDS011;60621;49.576;11.024;2022-12-05T00:35:51;21.23;;;10.48;;
72586;SDS011;60621;49.576;11.024;2022-12-05T00:36:53;21.10;;;10.70;;
72586;SDS011;60621;49.576;11.024;2022-12-05T00:37:54;20.33;;;10.85;;
72586;SDS011;60621;49.576;11.024;2022-12-05T00:38:57;19.55;;;9.95;;
72586;SDS011;60621;49.576;11.024;2022-12-05T00:40:00;20.52;;;10.02;;
72586;SDS011;60621;49.576;11.024;2022-12-05T00:41:05;22.80;;;10.77;;
72586;SDS011;60621;49.576;11.024;2022-12-05T00:42:09;21.33;;;10.18;;
72586;SDS011;60621;49.576;11.024;2022-12-05T00:43:10;20.75;;;10.15;;
72586;SDS011;60621;49.576;11.024;2022-12-05T00:44:12;22.13;;;9.77;;
72586;SDS011;60621;49.576;11.024;2022-12-05T00:45:13;22.20;;;9.88;;
72586;SDS011;60621;49.576;11.024;2022-12-05T00:46:17;21.38;;;10.00;;
72586;SDS011;60621;49.576;11.024;2022-12-05T00:47:20;19.15;;;9.52;;
72586;SDS011;60621;49.576;11.024;2022-12-05T00:48:22;19.92;;;10.48;;
72586;SDS011;60621;49.576;11.024;2022-12-05T00:49:23;20.67;;;9.85;;
72586;SDS011;60621;49.576;11.024;2022-12-05T00:50:25;22.35;;;10.20;;
72586;SDS011;60621;49.576;11.024;2022-12-05T00:51:28;20.80;;;10.20;;
72586;SDS011;60621;49.576;11.024;2022-12-05T00:52:35;20.30;;;9.18;;
72586;SDS011;60621;49.576;11.024;2022-12-05T00:53:36;22.58;;;10.75;;
72586;SDS011;60621;49.576;11.024;2022-12-05T00:54:38;18.80;;;9.70;;
72586;SDS011;60621;49.576;11.024;2022-12-05T00:55:47;20.23;;;9.73;;
72586;SDS011;60621;49.576;11.024;2022-12-05T00:56:48;20.58;;;10.05;;
72586;SDS011;60621;49.576;11.024;2022-12-05T00:57:52;21.10;;;9.57;;
72586;SDS011;60621;49.576;11.024;2022-12-05T00:58:54;20.60;;;9.95;;
72586;SDS011;60621;49.576;11.024;2022-12-05T00:59:57;21.20;;;10.05;;
72586;SDS011;60621;49.576;11.024;2022-12-05T01:01:06;21.60;;;10.05;;
72586;SDS011;60621;49.576;11.024;2022-12-05T01:02:13;21.20;;;10.00;;
72586;SDS011;60621;49.576;11.024;2022-12-05T01:03:15;22.92;;;10.88;;
72586;SDS011;60621;49.576;11.024;2022-12-05T01:04:25;23.20;;;11.32;;
72586;SDS011;60621;49.576;11.024;2022-12-05T01:05:27;22.67;;;10.50;;
72586;SDS011;60621;49.576;11.024;2022-12-05T01:06:29;21.88;;;10.60;;
72586;SDS011;60621;49.576;11.024;2022-12-05T01:07:30;22.20;;;10.93;;
72586;SDS011;60621;49.576;11.024;2022-12-05T01:08:32;20.33;;;10.07;;
72586;SDS011;60621;49.576;11.024;2022-12-05T01:09:35;23.02;;;11.10;;
72586;SDS011;60621;49.576;11.024;2022-12-05T01:10:36;21.63;;;10.43;;
72586;SDS011;60621;49.576;11.024;2022-12-05T01:11:38;21.63;;;11.52;;
72586;SDS011;60621;49.576;11.024;2022-12-05T01:12:41;24.05;;;10.45;;
72586;SDS011;60621;49.576;11.024;2022-12-05T01:13:43;21.25;;;10.23;;
72586;SDS011;60621;49.576;11.024;2022-12-05T01:14:45;21.55;;;10.25;;
72586;SDS011;60621;49.576;11.024;2022-12-05T01:15:47;20.00;;;9.52;;
72586;SDS011;60621;49.576;11.024;2022-12-05T01:16:49;20.10;;;10.25;;
72586;SDS011;60621;49.576;11.024;2022-12-05T01:17:52;21.60;;;10.50;;
72586;SDS011;60621;49.576;11.024;2022-12-05T01:18:54;20.92;;;10.15;;
72586;SDS011;60621;49.576;11.024;2022-12-05T01:19:57;20.25;;;9.88;;
72586;SDS011;60621;49.576;11.024;2022-12-05T01:20:59;20.35;;;10.25;;
72586;SDS011;60621;49.576;11.024;2022-12-05T01:22:05;21.38;;;10.55;;
72586;SDS011;60621;49.576;11.024;2022-12-05T01:23:06;23.02;;;10.57;;
72586;SDS011;60621;49.576;11.024;2022-12-05T01:24:09;20.58;;;10.40;;
72586;SDS011;60621;49.576;11.024;2022-12-05T01:26:13;21.55;;;9.23;;
72586;SDS011;60621;49.576;11.024;2022-12-05T01:27:17;20.05;;;10.07;;
72586;SDS011;60621;49.576;11.024;2022-12-05T01:28:18;21.83;;;10.02;;
72586;SDS011;60621;49.576;11.024;2022-12-05T01:29:21;20.38;;;9.85;;
72586;SDS011;60621;49.576;11.024;2022-12-05T01:32:28;21.25;;;9.90;;
72586;SDS011;60621;49.576;11.024;2022-12-05T01:33:30;21.08;;;10.27;;
72586;SDS011;60621;49.576;11.024;2022-12-05T01:34:31;20.67;;;10.20;;
72586;SDS011;60621;49.576;11.024;2022-12-05T01:35:37;19.92;;;9.60;;
72586;SDS011;60621;49.576;11.024;2022-12-05T01:36:39;21.15;;;9.65;;
72586;SDS011;60621;49.576;11.024;2022-12-05T01:37:41;21.33;;;9.60;;
72586;SDS011;60621;49.576;11.024;2022-12-05T01:38:43;18.52;;;8.82;;
72586;SDS011;60621;49.576;11.024;2022-12-05T01:39:45;21.30;;;9.98;;
72586;SDS011;60621;49.576;11.024;2022-12-05T01:40:48;20.30;;;10.00;;
72586;SDS011;60621;49.576;11.024;2022-12-05T01:41:49;20.50;;;10.20;;
72586;SDS011;60621;49.576;11.024;2022-12-05T01:42:51;20.83;;;10.10;;
72586;SDS011;60621;49.576;11.024;2022-12-05T01:44:00;20.85;;;10.13;;
72586;SDS011;60621;49.576;11.024;2022-12-05T01:45:07;19.70;;;9.98;;
72586;SDS011;60621;49.576;11.024;2022-12-05T01:47:35;20.73;;;9.02;;
72586;SDS011;60621;49.576;11.024;2022-12-05T01:48:37;19.70;;;9.73;;
72586;SDS011;60621;49.576;11.024;2022-12-05T01:49:39;22.02;;;10.23;;
72586;SDS011;60621;49.576;11.024;2022-12-05T01:50:42;22.25;;;10.60;;
72586;SDS011;60621;49.576;11.024;2022-12-05T01:51:45;21.75;;;9.50;;
72586;SDS011;60621;49.576;11.024;2022-12-05T01:52:49;20.95;;;9.73;;
72586;SDS011;60621;49.576;11.024;2022-12-05T01:53:50;20.42;;;9.70;;
72586;SDS011;60621;49.576;11.024;2022-12-05T01:54:53;20.63;;;10.20;;
72586;SDS011;60621;49.576;11.024;2022-12-05T01:55:57;19.67;;;9.63;;
72586;SDS011;60621;49.576;11.024;2022-12-05T01:57:00;19.83;;;10.18;;
72586;SDS011;60621;49.576;11.024;2022-12-05T01:58:05;20.70;;;9.82;;
72586;SDS011;60621;49.576;11.024;2022-12-05T01:59:09;23.20;;;10.95;;
72586;SDS011;60621;49.576;11.024;2022-12-05T02:00:13;22.00;;;10.73;;
72586;SDS011;60621;49.576;11.024;2022-12-05T02:01:17;21.13;;;10.05;;
72586;SDS011;60621;49.576;11.024;2022-12-05T02:02:19;22.95;;;10.43;;
72586;SDS011;60621;49.576;11.024;2022-12-05T02:03:21;25.08;;;11.05;;
72586;SDS011;60621;49.576;11.024;2022-12-05T02:04:23;23.50;;;11.48;;
72586;SDS011;60621;49.576;11.024;2022-12-05T02:06:30;22.77;;;10.88;;
72586;SDS011;60621;49.576;11.024;2022-12-05T02:07:32;22.95;;;10.52;;
72586;SDS011;60621;49.576;11.024;2022-12-05T02:08:38;18.77;;;9.27;;
72586;SDS011;60621;49.576;11.024;2022-12-05T02:09:41;20.23;;;9.85;;
72586;SDS011;60621;49.576;11.024;2022-12-05T02:10:43;23.75;;;10.88;;
72586;SDS011;60621;49.576;11.024;2022-12-05T02:11:53;21.55;;;9.75;;
72586;SDS011;60621;49.576;11.024;2022-12-05T02:13:01;21.08;;;10.02;;
72586;SDS011;60621;49.576;11.024;2022-12-05T02:14:28;21.35;;;9.50;;
72586;SDS011;60621;49.576;11.024;2022-12-05T02:15:42;21.27;;;9.85;;
72586;SDS011;60621;49.576;11.024;2022-12-05T02:19:45;21.75;;;10.25;;
72586;SDS011;60621;49.576;11.024;2022-12-05T02:21:07;20.85;;;10.43;;
72586;SDS011;60621;49.576;11.024;2022-12-05T02:22:47;22.75;;;10.38;;
72586;SDS011;60621;49.576;11.024;2022-12-05T02:25:45;26.70;;;10.73;;
72586;SDS011;60621;49.576;11.024;2022-12-05T02:26:55;23.35;;;10.88;;
72586;SDS011;60621;49.576;11.024;2022-12-05T02:31:21;25.73;;;11.95;;
72586;SDS011;60621;49.576;11.024;2022-12-05T02:36:06;25.27;;;11.43;;
72586;SDS011;60621;49.576;11.024;2022-12-05T02:37:32;25.50;;;12.00;;
72586;SDS011;60621;49.576;11.024;2022-12-05T02:40:21;26.83;;;11.45;;
72586;SDS011;60621;49.576;11.024;2022-12-05T02:41:26;25.33;;;12.05;;
72586;SDS011;60621;49.576;11.024;2022-12-05T02:42:32;25.42;;;11.25;;
72586;SDS011;60621;49.576;11.024;2022-12-05T02:45:02;24.85;;;11.13;;
72586;SDS011;60621;49.576;11.024;2022-12-05T02:47:14;28.25;;;11.55;;
72586;SDS011;60621;49.576;11.024;2022-12-05T02:48:20;27.23;;;12.48;;
72586;SDS011;60621;49.576;11.024;2022-12-05T02:49:28;26.98;;;12.00;;
72586;SDS011;60621;49.576;11.024;2022-12-05T02:50:36;28.50;;;12.43;;
72586;SDS011;60621;49.576;11.024;2022-12-05T02:51:41;28.10;;;12.43;;
72586;SDS011;60621;49.576;11.024;2022-12-05T02:52:47;25.30;;;11.65;;
72586;SDS011;60621;49.576;11.024;2022-12-05T02:53:52;28.27;;;12.57;;
72586;SDS011;60621;49.576;11.024;2022-12-05T02:54:57;27.90;;;12.32;;
72586;SDS011;60621;49.576;11.024;2022-12-05T02:56:00;26.48;;;11.95;;
72586;SDS011;60621;49.576;11.024;2022-12-05T02:57:04;26.77;;;12.13;;
72586;SDS011;60621;49.576;11.024;2022-12-05T02:58:08;26.83;;;12.00;;
72586;SDS011;60621;49.576;11.024;2022-12-05T02:59:14;25.92;;;11.50;;
72586;SDS011;60621;49.576;11.024;2022-12-05T03:00:23;29.20;;;11.73;;
72586;SDS011;60621;49.576;11.024;2022-12-05T03:01:25;30.52;;;12.75;;
72586;SDS011;60621;49.576;11.024;2022-12-05T03:02:30;29.90;;;12.35;;
72586;SDS011;60621;49.576;11.024;2022-12-05T03:03:34;25.00;;;10.85;;
72586;SDS011;60621;49.576;11.024;2022-12-05T03:04:37;27.40;;;11.27;;
72586;SDS011;60621;49.576;11.024;2022-12-05T03:05:44;24.17;;;11.27;;
72586;SDS011;60621;49.576;11.024;2022-12-05T03:06:52;24.98;;;10.68;;
72586;SDS011;60621;49.576;11.024;2022-12-05T03:07:58;25.80;;;11.05;;
72586;SDS011;60621;49.576;11.024;2022-12-05T03:09:07;24.33;;;11.63;;
72586;SDS011;60621;49.576;11.024;2022-12-05T03:10:11;22.58;;;10.35;;
72586;SDS011;60621;49.576;11.024;2022-12-05T03:11:15;23.45;;;10.27;;
72586;SDS011;60621;49.576;11.024;2022-12-05T03:12:17;22.27;;;10.25;;
72586;SDS011;60621;49.576;11.024;2022-12-05T03:13:43;24.42;;;10.80;;
72586;SDS011;60621;49.576;11.024;2022-12-05T03:14:50;24.45;;;10.52;;
72586;SDS011;60621;49.576;11.024;2022-12-05T03:15:58;22.00;;;10.30;;
72586;SDS011;60621;49.576;11.024;2022-12-05T03:17:04;21.50;;;9.60;;
72586;SDS011;60621;49.576;11.024;2022-12-05T03:18:18;22.23;;;10.27;;
72586;SDS011;60621;49.576;11.024;2022-12-05T03:19:29;21.73;;;9.43;;
72586;SDS011;60621;49.576;11.024;2022-12-05T03:20:47;23.83;;;10.23;;
72586;SDS011;60621;49.576;11.024;2022-12-05T03:23:08;20.63;;;9.65;;
72586;SDS011;60621;49.576;11.024;2022-12-05T03:24:14;18.52;;;8.88;;
72586;SDS011;60621;49.576;11.024;2022-12-05T03:25:17;19.33;;;8.80;;
72586;SDS011;60621;49.576;11.024;2022-12-05T03:27:46;19.98;;;8.52;;
72586;SDS011;60621;49.576;11.024;2022-12-05T03:28:54;18.42;;;8.73;;
72586;SDS011;60621;49.576;11.024;2022-12-05T03:30:01;20.70;;;9.45;;
72586;SDS011;60621;49.576;11.024;2022-12-05T03:31:05;17.88;;;8.43;;
72586;SDS011;60621;49.576;11.024;2022-12-05T03:32:10;20.45;;;9.18;;
72586;SDS011;60621;49.576;11.024;2022-12-05T03:33:23;17.60;;;8.15;;
72586;SDS011;60621;49.576;11.024;2022-12-05T03:35:56;19.83;;;9.05;;
72586;SDS011;60621;49.576;11.024;2022-12-05T03:37:05;19.00;;;8.55;;
72586;SDS011;60621;49.576;11.024;2022-12-05T03:39:59;16.67;;;7.95;;
72586;SDS011;60621;49.576;11.024;2022-12-05T03:42:27;19.73;;;9.20;;
72586;SDS011;60621;49.576;11.024;2022-12-05T03:43:43;18.25;;;8.77;;
72586;SDS011;60621;49.576;11.024;2022-12-05T03:45:14;16.48;;;7.75;;
72586;SDS011;60621;49.576;11.024;2022-12-05T03:47:47;15.80;;;7.55;;
72586;SDS011;60621;49.576;11.024;2022-12-05T03:49:06;18.05;;;7.38;;
72586;SDS011;60621;49.576;11.024;2022-12-05T03:50:17;17.17;;;7.97;;
72586;SDS011;60621;49.576;11.024;2022-12-05T03:52:07;17.13;;;8.20;;
72586;SDS011;60621;49.576;11.024;2022-12-05T03:52:55;17.05;;;7.90;;
72586;SDS011;60621;49.576;11.024;2022-12-05T03:54:27;17.63;;;8.45;;
72586;SDS011;60621;49.576;11.024;2022-12-05T03:55:34;17.38;;;8.82;;
72586;SDS011;60621;49.576;11.024;2022-12-05T03:56:39;17.33;;;8.32;;
72586;SDS011;60621;49.576;11.024;2022-12-05T03:57:48;17.67;;;8.20;;
72586;SDS011;60621;49.576;11.024;2022-12-05T03:59:37;17.27;;;8.25;;
72586;SDS011;60621;49.576;11.024;2022-12-05T04:00:44;16.92;;;7.95;;
72586;SDS011;60621;49.576;11.024;2022-12-05T04:01:49;15.57;;;7.63;;
72586;SDS011;60621;49.576;11.024;2022-12-05T04:03:15;15.52;;;7.70;;
72586;SDS011;60621;49.576;11.024;2022-12-05T04:04:24;16.27;;;8.27;;
72586;SDS011;60621;49.576;11.024;2022-12-05T04:07:10;15.85;;;7.32;;
72586;SDS011;60621;49.576;11.024;2022-12-05T04:08:25;15.63;;;8.13;;
72586;SDS011;60621;49.576;11.024;2022-12-05T04:09:36;15.25;;;7.65;;
72586;SDS011;60621;49.576;11.024;2022-12-05T04:10:42;17.73;;;8.15;;
72586;SDS011;60621;49.576;11.024;2022-12-05T04:11:52;17.90;;;7.95;;
72586;SDS011;60621;49.576;11.024;2022-12-05T04:12:58;19.58;;;8.48;;
72586;SDS011;60621;49.576;11.024;2022-12-05T04:14:18;19.05;;;8.68;;
72586;SDS011;60621;49.576;11.024;2022-12-05T04:15:27;18.80;;;9.23;;
72586;SDS011;60621;49.576;11.024;2022-12-05T04:18:04;15.77;;;7.90;;
72586;SDS011;60621;49.576;11.024;2022-12-05T04:21:43;15.98;;;7.88;;
72586;SDS011;60621;49.576;11.024;2022-12-05T04:22:50;18.58;;;8.43;;
72586;SDS011;60621;49.576;11.024;2022-12-05T04:23:51;16.90;;;8.02;;
72586;SDS011;60621;49.576;11.024;2022-12-05T04:25:14;16.25;;;7.95;;
72586;SDS011;60621;49.576;11.024;2022-12-05T04:26:35;16.52;;;7.65;;
72586;SDS011;60621;49.576;11.024;2022-12-05T04:29:26;17.25;;;8.02;;
72586;SDS011;60621;49.576;11.024;2022-12-05T04:30:39;17.08;;;8.77;;
72586;SDS011;60621;49.576;11.024;2022-12-05T04:32:04;16.25;;;8.02;;
72586;SDS011;60621;49.576;11.024;2022-12-05T04:33:22;18.65;;;8.70;;
72586;SDS011;60621;49.576;11.024;2022-12-05T04:34:32;14.43;;;7.25;;
72586;SDS011;60621;49.576;11.024;2022-12-05T04:35:44;16.50;;;8.07;;
72586;SDS011;60621;49.576;11.024;2022-12-05T04:36:54;17.83;;;8.63;;
72586;SDS011;60621;49.576;11.024;2022-12-05T04:38:04;16.45;;;8.75;;
72586;SDS011;60621;49.576;11.024;2022-12-05T04:39:15;15.27;;;7.35;;
72586;SDS011;60621;49.576;11.024;2022-12-05T04:40:29;16.75;;;7.85;;
72586;SDS011;60621;49.576;11.024;2022-12-05T04:41:44;14.88;;;7.35;;
72586;SDS011;60621;49.576;11.024;2022-12-05T04:42:56;15.23;;;7.63;;
72586;SDS011;60621;49.576;11.024;2022-12-05T04:44:06;15.77;;;7.78;;
72586;SDS011;60621;49.576;11.024;2022-12-05T04:45:09;15.80;;;8.25;;
72586;SDS011;60621;49.576;11.024;2022-12-05T04:46:13;17.40;;;8.70;;
72586;SDS011;60621;49.576;11.024;2022-12-05T04:47:20;17.65;;;8.05;;
72586;SDS011;60621;49.576;11.024;2022-12-05T04:48:26;18.60;;;8.13;;
72586;SDS011;60621;49.576;11.024;2022-12-05T04:49:28;16.95;;;8.50;;
72586;SDS011;60621;49.576;11.024;2022-12-05T04:50:32;16.10;;;7.82;;
72586;SDS011;60621;49.576;11.024;2022-12-05T04:51:37;14.57;;;7.55;;
72586;SDS011;60621;49.576;11.024;2022-12-05T04:52:41;14.70;;;7.80;;
72586;SDS011;60621;49.576;11.024;2022-12-05T04:53:48;15.38;;;7.68;;
72586;SDS011;60621;49.576;11.024;2022-12-05T04:55:00;14.75;;;7.38;;
72586;SDS011;60621;49.576;11.024;2022-12-05T04:56:06;13.88;;;7.60;;
72586;SDS011;60621;49.576;11.024;2022-12-05T04:58:34;12.82;;;6.78;;
72586;SDS011;60621;49.576;11.024;2022-12-05T04:59:35;15.55;;;7.43;;
72586;SDS011;60621;49.576;11.024;2022-12-05T05:00:39;13.73;;;6.60;;
72586;SDS011;60621;49.576;11.024;2022-12-05T05:01:59;15.73;;;6.90;;
72586;SDS011;60621;49.576;11.024;2022-12-05T05:03:13;13.60;;;6.90;;
72586;SDS011;60621;49.576;11.024;2022-12-05T05:04:20;15.23;;;6.78;;
72586;SDS011;60621;49.576;11.024;2022-12-05T05:05:27;15.90;;;6.80;;
72586;SDS011;60621;49.576;11.024;2022-12-05T05:06:30;14.52;;;6.35;;
72586;SDS011;60621;49.576;11.024;2022-12-05T05:07:32;12.43;;;6.35;;
72586;SDS011;60621;49.576;11.024;2022-12-05T05:08:47;13.63;;;6.57;;
72586;SDS011;60621;49.576;11.024;2022-12-05T05:09:54;14.93;;;6.70;;
72586;SDS011;60621;49.576;11.024;2022-12-05T05:11:02;14.98;;;7.03;;
72586;SDS011;60621;49.576;11.024;2022-12-05T05:12:04;10.57;;;5.68;;
72586;SDS011;60621;49.576;11.024;2022-12-05T05:13:06;13.95;;;6.93;;
72586;SDS011;60621;49.576;11.024;2022-12-05T05:14:08;12.50;;;6.35;;
72586;SDS011;60621;49.576;11.024;2022-12-05T05:15:09;11.60;;;6.10;;
72586;SDS011;60621;49.576;11.024;2022-12-05T05:16:12;11.40;;;5.93;;
72586;SDS011;60621;49.576;11.024;2022-12-05T05:17:18;14.35;;;6.38;;
72586;SDS011;60621;49.576;11.024;2022-12-05T05:18:19;12.77;;;5.97;;
72586;SDS011;60621;49.576;11.024;2022-12-05T05:19:21;12.18;;;5.85;;
72586;SDS011;60621;49.576;11.024;2022-12-05T05:20:23;12.25;;;5.75;;
72586;SDS011;60621;49.576;11.024;2022-12-05T05:21:28;12.45;;;6.07;;
72586;SDS011;60621;49.576;11.024;2022-12-05T05:22:32;11.73;;;5.80;;
72586;SDS011;60621;49.576;11.024;2022-12-05T05:23:33;12.20;;;6.25;;
72586;SDS011;60621;49.576;11.024;2022-12-05T05:24:35;10.90;;;5.50;;
72586;SDS011;60621;49.576;11.024;2022-12-05T05:25:36;11.25;;;5.63;;
72586;SDS011;60621;49.576;11.024;2022-12-05T05:26:39;11.23;;;5.30;;
72586;SDS011;60621;49.576;11.024;2022-12-05T05:27:41;11.00;;;5.22;;
72586;SDS011;60621;49.576;11.024;2022-12-05T05:28:43;10.30;;;5.03;;
72586;SDS011;60621;49.576;11.024;2022-12-05T05:29:45;11.55;;;4.90;;
72586;SDS011;60621;49.576;11.024;2022-12-05T05:30:47;10.32;;;4.95;;
72586;SDS011;60621;49.576;11.024;2022-12-05T05:31:49;10.40;;;5.15;;
72586;SDS011;60621;49.576;11.024;2022-12-05T05:32:51;8.85;;;4.30;;
72586;SDS011;60621;49.576;11.024;2022-12-05T05:33:53;9.65;;;4.57;;
72586;SDS011;60621;49.576;11.024;2022-12-05T05:34:56;10.73;;;4.60;;
72586;SDS011;60621;49.576;11.024;2022-12-05T05:36:01;10.80;;;4.63;;
72586;SDS011;60621;49.576;11.024;2022-12-05T05:37:06;10.60;;;4.90;;
72586;SDS011;60621;49.576;11.024;2022-12-05T05:38:08;9.85;;;4.55;;
72586;SDS011;60621;49.576;11.024;2022-12-05T05:39:10;9.63;;;4.55;;
72586;SDS011;60621;49.576;11.024;2022-12-05T05:40:15;10.40;;;4.78;;
72586;SDS011;60621;49.576;11.024;2022-12-05T05:41:17;8.90;;;4.50;;
72586;SDS011;60621;49.576;11.024;2022-12-05T05:42:20;10.82;;;4.50;;
72586;SDS011;60621;49.576;11.024;2022-12-05T05:43:22;10.35;;;4.82;;
72586;SDS011;60621;49.576;11.024;2022-12-05T05:44:23;10.00;;;4.70;;
72586;SDS011;60621;49.576;11.024;2022-12-05T05:45:25;10.63;;;4.63;;
72586;SDS011;60621;49.576;11.024;2022-12-05T05:46:28;10.60;;;4.78;;
72586;SDS011;60621;49.576;11.024;2022-12-05T05:47:31;9.35;;;4.35;;
72586;SDS011;60621;49.576;11.024;2022-12-05T05:48:33;9.32;;;4.25;;
72586;SDS011;60621;49.576;11.024;2022-12-05T05:49:35;10.02;;;4.10;;
72586;SDS011;60621;49.576;11.024;2022-12-05T05:50:37;10.20;;;4.28;;
72586;SDS011;60621;49.576;11.024;2022-12-05T05:51:38;9.90;;;4.00;;
72586;SDS011;60621;49.576;11.024;2022-12-05T05:52:39;9.20;;;4.43;;
72586;SDS011;60621;49.576;11.024;2022-12-05T05:53:41;7.95;;;3.83;;
72586;SDS011;60621;49.576;11.024;2022-12-05T05:54:43;8.82;;;3.83;;
72586;SDS011;60621;49.576;11.024;2022-12-05T05:55:45;8.63;;;4.18;;
72586;SDS011;60621;49.576;11.024;2022-12-05T05:56:46;8.93;;;4.28;;
72586;SDS011;60621;49.576;11.024;2022-12-05T05:57:48;8.45;;;4.30;;
72586;SDS011;60621;49.576;11.024;2022-12-05T05:58:57;9.82;;;4.43;;
72586;SDS011;60621;49.576;11.024;2022-12-05T06:00:00;8.65;;;4.18;;
72586;SDS011;60621;49.576;11.024;2022-12-05T06:01:06;8.77;;;4.15;;
72586;SDS011;60621;49.576;11.024;2022-12-05T06:02:08;9.20;;;4.30;;
72586;SDS011;60621;49.576;11.024;2022-12-05T06:03:10;9.80;;;3.85;;
72586;SDS011;60621;49.576;11.024;2022-12-05T06:04:11;9.52;;;4.28;;
72586;SDS011;60621;49.576;11.024;2022-12-05T06:05:13;8.43;;;3.90;;
72586;SDS011;60621;49.576;11.024;2022-12-05T06:06:14;7.80;;;3.78;;
72586;SDS011;60621;49.576;11.024;2022-12-05T06:07:17;8.88;;;4.00;;
72586;SDS011;60621;49.576;11.024;2022-12-05T06:08:18;7.80;;;4.00;;
72586;SDS011;60621;49.576;11.024;2022-12-05T06:09:20;8.48;;;4.60;;
72586;SDS011;60621;49.576;11.024;2022-12-05T06:10:21;8.50;;;3.70;;
72586;SDS011;60621;49.576;11.024;2022-12-05T06:11:24;8.25;;;4.00;;
72586;SDS011;60621;49.576;11.024;2022-12-05T06:12:27;8.45;;;4.18;;
72586;SDS011;60621;49.576;11.024;2022-12-05T06:13:29;7.75;;;4.00;;
72586;SDS011;60621;49.576;11.024;2022-12-05T06:14:30;10.23;;;4.22;;
72586;SDS011;60621;49.576;11.024;2022-12-05T06:15:32;8.93;;;3.90;;
72586;SDS011;60621;49.576;11.024;2022-12-05T06:16:33;9.50;;;4.68;;
72586;SDS011;60621;49.576;11.024;2022-12-05T06:17:35;8.75;;;4.20;;
72586;SDS011;60621;49.576;11.024;2022-12-05T06:18:37;8.45;;;3.80;;
72586;SDS011;60621;49.576;11.024;2022-12-05T06:19:39;8.90;;;4.28;;
72586;SDS011;60621;49.576;11.024;2022-12-05T06:20:41;8.00;;;4.20;;
72586;SDS011;60621;49.576;11.024;2022-12-05T06:21:42;8.80;;;4.05;;
72586;SDS011;60621;49.576;11.024;2022-12-05T06:22:44;8.27;;;4.00;;
72586;SDS011;60621;49.576;11.024;2022-12-05T06:23:46;8.45;;;4.00;;
72586;SDS011;60621;49.576;11.024;2022-12-05T06:24:48;9.18;;;4.18;;
72586;SDS011;60621;49.576;11.024;2022-12-05T06:25:50;9.90;;;4.60;;
72586;SDS011;60621;49.576;11.024;2022-12-05T06:26:53;10.23;;;4.40;;
72586;SDS011;60621;49.576;11.024;2022-12-05T06:27:54;8.65;;;4.30;;
72586;SDS011;60621;49.576;11.024;2022-12-05T06:28:56;9.13;;;4.40;;
72586;SDS011;60621;49.576;11.024;2022-12-05T06:29:58;9.43;;;4.72;;
72586;SDS011;60621;49.576;11.024;2022-12-05T06:31:05;9.88;;;4.65;;
72586;SDS011;60621;49.576;11.024;2022-12-05T06:32:08;8.98;;;4.25;;
72586;SDS011;60621;49.576;11.024;2022-12-05T06:33:09;10.20;;;4.70;;
72586;SDS011;60621;49.576;11.024;2022-12-05T06:34:11;10.52;;;4.88;;
72586;SDS011;60621;49.576;11.024;2022-12-05T06:35:13;9.68;;;4.45;;
72586;SDS011;60621;49.576;11.024;2022-12-05T06:36:19;11.00;;;5.07;;
72586;SDS011;60621;49.576;11.024;2022-12-05T06:37:21;10.20;;;4.82;;
72586;SDS011;60621;49.576;11.024;2022-12-05T06:38:23;10.02;;;4.93;;
72586;SDS011;60621;49.576;11.024;2022-12-05T06:39:25;10.85;;;5.22;;
72586;SDS011;60621;49.576;11.024;2022-12-05T06:40:26;10.80;;;5.22;;
72586;SDS011;60621;49.576;11.024;2022-12-05T06:41:28;12.75;;;5.07;;
72586;SDS011;60621;49.576;11.024;2022-12-05T06:42:30;12.38;;;5.70;;
72586;SDS011;60621;49.576;11.024;2022-12-05T06:43:31;11.55;;;5.40;;
72586;SDS011;60621;49.576;11.024;2022-12-05T06:44:33;10.20;;;4.90;;
72586;SDS011;60621;49.576;11.024;2022-12-05T06:45:36;11.43;;;5.00;;
72586;SDS011;60621;49.576;11.024;2022-12-05T06:46:38;12.07;;;5.22;;
72586;SDS011;60621;49.576;11.024;2022-12-05T06:47:40;11.57;;;4.82;;
72586;SDS011;60621;49.576;11.024;2022-12-05T06:48:41;10.40;;;4.82;;
72586;SDS011;60621;49.576;11.024;2022-12-05T06:49:43;11.13;;;5.30;;
72586;SDS011;60621;49.576;11.024;2022-12-05T06:50:51;10.45;;;4.88;;
72586;SDS011;60621;49.576;11.024;2022-12-05T06:51:53;11.85;;;5.25;;
72586;SDS011;60621;49.576;11.024;2022-12-05T06:52:55;9.65;;;4.90;;
72586;SDS011;60621;49.576;11.024;2022-12-05T06:53:56;12.43;;;5.28;;
72586;SDS011;60621;49.576;11.024;2022-12-05T06:54:58;11.23;;;5.03;;
72586;SDS011;60621;49.576;11.024;2022-12-05T06:56:01;13.50;;;5.80;;
72586;SDS011;60621;49.576;11.024;2022-12-05T06:57:04;12.95;;;5.80;;
72586;SDS011;60621;49.576;11.024;2022-12-05T06:58:05;12.25;;;5.88;;
72586;SDS011;60621;49.576;11.024;2022-12-05T06:59:07;12.18;;;5.13;;
72586;SDS011;60621;49.576;11.024;2022-12-05T07:00:09;12.90;;;5.40;;